Map

Track Data

SID SEASON NUMBER BASIN SUBBASIN NAME ISO_TIME NATURE LAT LON WMO_WIND WMO_PRES WMO_AGENCY TRACK_TYPE DIST2LAND LANDFALL IFLAG USA_AGENCY USA_ATCF_ID USA_LAT USA_LON USA_RECORD USA_STATUS USA_WIND USA_PRES USA_SSHS USA_R34_NE USA_R34_SE USA_R34_SW USA_R34_NW USA_R50_NE USA_R50_SE USA_R50_SW USA_R50_NW USA_R64_NE USA_R64_SE USA_R64_SW USA_R64_NW USA_POCI USA_ROCI USA_RMW USA_EYE TOKYO_LAT TOKYO_LON TOKYO_GRADE TOKYO_WIND TOKYO_PRES TOKYO_R50_DIR TOKYO_R50_LONG TOKYO_R50_SHORT TOKYO_R30_DIR TOKYO_R30_LONG TOKYO_R30_SHORT TOKYO_LAND CMA_LAT CMA_LON CMA_CAT CMA_WIND CMA_PRES HKO_LAT HKO_LON HKO_CAT HKO_WIND HKO_PRES NEWDELHI_LAT NEWDELHI_LON NEWDELHI_GRADE NEWDELHI_WIND NEWDELHI_PRES NEWDELHI_CI NEWDELHI_DP NEWDELHI_POCI REUNION_LAT REUNION_LON REUNION_TYPE REUNION_WIND REUNION_PRES REUNION_TNUM REUNION_CI REUNION_RMW REUNION_R34_NE REUNION_R34_SE REUNION_R34_SW REUNION_R34_NW REUNION_R50_NE REUNION_R50_SE REUNION_R50_SW REUNION_R50_NW REUNION_R64_NE REUNION_R64_SE REUNION_R64_SW REUNION_R64_NW BOM_LAT BOM_LON BOM_TYPE BOM_WIND BOM_PRES BOM_TNUM BOM_CI BOM_RMW BOM_R34_NE BOM_R34_SE BOM_R34_SW BOM_R34_NW BOM_R50_NE BOM_R50_SE BOM_R50_SW BOM_R50_NW BOM_R64_NE BOM_R64_SE BOM_R64_SW BOM_R64_NW BOM_ROCI BOM_POCI BOM_EYE BOM_POS_METHOD BOM_PRES_METHOD NADI_LAT NADI_LON NADI_CAT NADI_WIND NADI_PRES WELLINGTON_LAT WELLINGTON_LON WELLINGTON_WIND WELLINGTON_PRES DS824_LAT DS824_LON DS824_STAGE DS824_WIND DS824_PRES TD9636_LAT TD9636_LON TD9636_STAGE TD9636_WIND TD9636_PRES TD9635_LAT TD9635_LON TD9635_WIND TD9635_PRES TD9635_ROCI NEUMANN_LAT NEUMANN_LON NEUMANN_CLASS NEUMANN_WIND NEUMANN_PRES MLC_LAT MLC_LON MLC_CLASS MLC_WIND MLC_PRES USA_GUST BOM_GUST BOM_GUST_PER REUNION_GUST REUNION_GUST_PER USA_SEAHGT USA_SEARAD_NE USA_SEARAD_SE USA_SEARAD_SW USA_SEARAD_NW STORM_SPEED STORM_DIR
1916230N26124 1916 41 WP MM NOT_NAMED 1916-08-17 10:00:00 NR 25.6000 124.400 main 250 240 __________O___ -1 25.6000 124.400 2 3 290
1916230N26124 1916 41 WP MM NOT_NAMED 1916-08-17 12:00:00 NR 25.6356 124.296 main 240 224 __________P___ -1 25.6356 124.296 2 3 291
1916230N26124 1916 41 WP MM NOT_NAMED 1916-08-17 15:00:00 NR 25.6881 124.141 main 224 215 __________P___ -1 25.6881 124.141 2 3 291
1916230N26124 1916 41 WP MM NOT_NAMED 1916-08-17 18:00:00 NR 25.7384 123.990 main 215 201 __________P___ -1 25.7384 123.990 2 3 290
1916230N26124 1916 41 WP MM NOT_NAMED 1916-08-17 21:00:00 NR 25.7853 123.846 main 201 201 __________P___ -1 25.7853 123.846 2 3 290
1916230N26124 1916 41 WP MM NOT_NAMED 1916-08-17 22:00:00 NR 25.8000 123.800 main 201 192 __________O___ -1 25.8000 123.800 2 3 290
1916230N26124 1916 41 WP MM NOT_NAMED 1916-08-18 00:00:00 NR 25.8280 123.711 main 192 183 __________P___ -1 25.8280 123.711 2 2 290
1916230N26124 1916 41 WP MM NOT_NAMED 1916-08-18 03:00:00 NR 25.8700 123.584 main 189 180 __________P___ -1 25.8700 123.584 2 2 292
1916230N26124 1916 41 WP MM NOT_NAMED 1916-08-18 06:00:00 NR 25.9175 123.461 main 180 171 __________P___ -1 25.9175 123.461 2 2 296
1916230N26124 1916 41 WP MM NOT_NAMED 1916-08-18 09:00:00 NR 25.9766 123.340 main 171 171 __________P___ -1 25.9766 123.340 2 3 300
1916230N26124 1916 41 WP MM NOT_NAMED 1916-08-18 10:00:00 NR 26.0000 123.300 main 171 164 __________O___ -1 26.0000 123.300 2 3 299
1916230N26124 1916 41 WP MM NOT_NAMED 1916-08-18 12:00:00 NR 26.0527 123.191 main 171 158 __________P___ -1 26.0527 123.191 2 3 300
1916230N26124 1916 41 WP MM NOT_NAMED 1916-08-18 15:00:00 NR 26.1442 123.026 main 158 158 __________P___ -1 26.1442 123.026 2 3 306
1916230N26124 1916 41 WP MM NOT_NAMED 1916-08-18 18:00:00 NR 26.2479 122.888 main 161 165 __________P___ -1 26.2479 122.888 2 3 318
1916230N26124 1916 41 WP MM NOT_NAMED 1916-08-18 21:00:00 NR 26.3608 122.808 main 175 175 __________P___ -1 26.3608 122.808 2 3 332
1916230N26124 1916 41 WP MM NOT_NAMED 1916-08-18 22:00:00 NR 26.4000 122.800 main 175 175 __________O___ -1 26.4000 122.800 2 2 10
1916230N26124 1916 41 WP MM NOT_NAMED 1916-08-19 00:00:00 NR 26.4776 122.826 main 185 185 __________P___ -1 26.4776 122.826 2 3 30
1916230N26124 1916 41 WP MM NOT_NAMED 1916-08-19 03:00:00 NR 26.6004 122.928 main 200 200 __________P___ -1 26.6004 122.928 2 3 42
1916230N26124 1916 41 WP MM NOT_NAMED 1916-08-19 06:00:00 NR 26.7280 123.079 main 219 219 __________P___ -1 26.7280 123.079 2 4 48
1916230N26124 1916 41 WP MM NOT_NAMED 1916-08-19 09:00:00 NR 26.8571 123.246 main 221 228 __________P___ -1 26.8571 123.246 2 4 49
1916230N26124 1916 41 WP MM NOT_NAMED 1916-08-19 10:00:00 NR 26.9000 123.300 main 228 228 __________O___ -1 26.9000 123.300 2 3 43
1916230N26124 1916 41 WP MM NOT_NAMED 1916-08-19 12:00:00 NR 26.9832 123.376 main 228 222 __________P___ -1 26.9832 123.376 2 3 39
1916230N26124 1916 41 WP MM NOT_NAMED 1916-08-19 15:00:00 NR 27.1082 123.489 main 229 223 __________P___ -1 27.1082 123.489 2 3 40
1916230N26124 1916 41 WP MM NOT_NAMED 1916-08-19 18:00:00 NR 27.2332 123.610 main 231 226 __________P___ -1 27.2332 123.610 2 3 43
1916230N26124 1916 41 WP MM NOT_NAMED 1916-08-19 21:00:00 NR 27.3583 123.748 main 229 238 __________P___ -1 27.3583 123.748 2 4 45
1916230N26124 1916 41 WP MM NOT_NAMED 1916-08-19 22:00:00 NR 27.4000 123.800 main 238 238 __________O___ -1 27.4000 123.800 2 4 47
1916230N26124 1916 41 WP MM NOT_NAMED 1916-08-20 00:00:00 NR 27.4859 123.906 main 242 242 __________P___ -1 27.4859 123.906 2 4 49
1916230N26124 1916 41 WP MM NOT_NAMED 1916-08-20 03:00:00 NR 27.6147 124.083 main 257 254 __________P___ -1 27.6147 124.083 2 4 53
1916230N26124 1916 41 WP MM NOT_NAMED 1916-08-20 06:00:00 NR 27.7410 124.286 main 273 270 __________P___ -1 27.7410 124.286 2 5 57
1916230N26124 1916 41 WP MM NOT_NAMED 1916-08-20 09:00:00 NR 27.8616 124.516 main 283 283 __________P___ -1 27.8616 124.516 2 5 60
1916230N26124 1916 41 WP MM NOT_NAMED 1916-08-20 10:00:00 NR 27.9000 124.600 main 292 292 __________O___ -1 27.9000 124.600 2 5 63
1916230N26124 1916 41 WP MM NOT_NAMED 1916-08-20 12:00:00 NR 27.9858 124.793 main 304 304 __________P___ -1 27.9858 124.793 2 6 65
1916230N26124 1916 41 WP MM NOT_NAMED 1916-08-20 15:00:00 NR 28.1083 125.107 main 326 326 __________P___ -1 28.1083 125.107 2 6 68
1916230N26124 1916 41 WP MM NOT_NAMED 1916-08-20 18:00:00 NR 28.2121 125.425 main 349 349 __________P___ -1 28.2121 125.425 2 6 72
1916230N26124 1916 41 WP MM NOT_NAMED 1916-08-20 21:00:00 NR 28.2848 125.715 main 373 373 __________P___ -1 28.2848 125.715 2 5 75
1916230N26124 1916 41 WP MM NOT_NAMED 1916-08-20 22:00:00 NR 28.3000 125.800 main 383 383 __________O___ -1 28.3000 125.800 2 4 82
1916230N26124 1916 41 WP MM NOT_NAMED 1916-08-21 00:00:00 NR 28.3116 125.932 main 392 392 __________P___ -1 28.3116 125.932 2 3 91
1916230N26124 1916 41 WP MM NOT_NAMED 1916-08-21 03:00:00 NR 28.2976 126.092 main 411 411 __________P___ -1 28.2976 126.092 2 3 101
1916230N26124 1916 41 WP MM NOT_NAMED 1916-08-21 06:00:00 NR 28.2601 126.225 main 421 421 __________P___ -1 28.2601 126.225 2 2 110
1916230N26124 1916 41 WP MM NOT_NAMED 1916-08-21 09:00:00 NR 28.2144 126.354 main 442 442 __________P___ -1 28.2144 126.354 2 2 112
1916230N26124 1916 41 WP MM NOT_NAMED 1916-08-21 10:00:00 NR 28.2000 126.400 main 442 442 __________O___ -1 28.2000 126.400 2 3 107
1916230N26124 1916 41 WP MM NOT_NAMED 1916-08-21 12:00:00 NR 28.1702 126.516 main 452 452 __________P___ -1 28.1702 126.516 2 3 106
1916230N26124 1916 41 WP MM NOT_NAMED 1916-08-21 15:00:00 NR 28.1253 126.697 main 474 470 __________P___ -1 28.1253 126.697 2 3 103
1916230N26124 1916 41 WP MM NOT_NAMED 1916-08-21 18:00:00 NR 28.0939 126.877 main 470 463 __________P___ -1 28.0939 126.877 2 3 96
1916230N26124 1916 41 WP MM NOT_NAMED 1916-08-21 21:00:00 NR 28.0916 127.047 main 463 457 __________P___ -1 28.0916 127.047 2 3 88
1916230N26124 1916 41 WP MM NOT_NAMED 1916-08-21 22:00:00 NR 28.1000 127.100 main 457 451 __________O___ -1 28.1000 127.100 2 3 71
1916230N26124 1916 41 WP MM NOT_NAMED 1916-08-22 00:00:00 NR 28.1354 127.195 main 451 436 __________P___ -1 28.1354 127.195 2 3 59
1916230N26124 1916 41 WP MM NOT_NAMED 1916-08-22 03:00:00 NR 28.2201 127.324 main 436 421 __________P___ -1 28.2201 127.324 2 3 49
1916230N26124 1916 41 WP MM NOT_NAMED 1916-08-22 06:00:00 NR 28.3315 127.444 main 421 391 __________P___ -1 28.3315 127.444 2 3 42
1916230N26124 1916 41 WP MM NOT_NAMED 1916-08-22 09:00:00 NR 28.4571 127.561 main 391 391 __________P___ -1 28.4571 127.561 2 3 39
1916230N26124 1916 41 WP MM NOT_NAMED 1916-08-22 10:00:00 NR 28.5000 127.600 main 391 376 __________O___ -1 28.5000 127.600 2 3 40
1916230N26124 1916 41 WP MM NOT_NAMED 1916-08-22 12:00:00 NR 28.5855 127.683 main 376 362 __________P___ -1 28.5855 127.683 2 3 39
1916230N26124 1916 41 WP MM NOT_NAMED 1916-08-22 15:00:00 NR 28.7202 127.808 main 362 338 __________P___ -1 28.7202 127.808 2 3 40
1916230N26124 1916 41 WP MM NOT_NAMED 1916-08-22 18:00:00 NR 28.8516 127.933 main 338 317 __________P___ -1 28.8516 127.933 2 3 42
1916230N26124 1916 41 WP MM NOT_NAMED 1916-08-22 21:00:00 NR 28.9671 128.058 main 317 317 __________P___ -1 28.9671 128.058 2 3 45
1916230N26124 1916 41 WP MM NOT_NAMED 1916-08-22 22:00:00 NR 29.0000 128.100 main 317 311 __________O___ -1 29.0000 128.100 2 3 52
1916230N26124 1916 41 WP MM NOT_NAMED 1916-08-23 00:00:00 NR 29.0478 128.178 main 311 296 __________P___ -1 29.0478 128.178 2 2 59
1916230N26124 1916 41 WP MM NOT_NAMED 1916-08-23 03:00:00 NR 29.1005 128.295 main 296 291 __________P___ -1 29.1005 128.295 2 2 66
1916230N26124 1916 41 WP MM NOT_NAMED 1916-08-23 06:00:00 NR 29.1416 128.418 main 291 270 __________P___ -1 29.1416 128.418 2 2 69
1916230N26124 1916 41 WP MM NOT_NAMED 1916-08-23 09:00:00 NR 29.1836 128.552 main 270 270 __________P___ -1 29.1836 128.552 2 3 70
1916230N26124 1916 41 WP MM NOT_NAMED 1916-08-23 10:00:00 NR 29.2000 128.600 main 270 265 __________O___ -1 29.2000 128.600 2 3 67
1916230N26124 1916 41 WP MM NOT_NAMED 1916-08-23 12:00:00 NR 29.2382 128.703 main 265 245 __________P___ -1 29.2382 128.703 2 3 66
1916230N26124 1916 41 WP MM NOT_NAMED 1916-08-23 15:00:00 NR 29.3073 128.871 main 245 226 __________P___ -1 29.3073 128.871 2 3 64
1916230N26124 1916 41 WP MM NOT_NAMED 1916-08-23 18:00:00 NR 29.3865 129.050 main 226 212 __________P___ -1 29.3865 129.050 2 4 63
1916230N26124 1916 41 WP MM NOT_NAMED 1916-08-23 21:00:00 NR 29.4712 129.237 main 212 208 __________P___ -1 29.4712 129.237 2 4 62
1916230N26124 1916 41 WP MM NOT_NAMED 1916-08-23 22:00:00 NR 29.5000 129.300 main 208 __________O___ -1 29.5000 129.300 2 4 65

Digital Typhoon Data and Search

About IBTrACS Database

This database is a web-friendly format of International Best Track Archive for Climate Stewardship (IBTrACS), a global best track data archive curated by NOAA dating back to 1842.

Updated: 2021-10-08